sensor_id;sensor_type;location;lat;lon;timestamp;pressure;altitude;pressure_sealevel;temperature;humidity
46846;BME280;33947;46.804;134.252;2023-02-28T00:02:09;100315.41;;;1.70;55.66
46846;BME280;33947;46.804;134.252;2023-02-28T00:05:15;100301.56;;;1.91;55.00
46846;BME280;33947;46.804;134.252;2023-02-28T00:08:19;100307.69;;;1.93;54.41
46846;BME280;33947;46.804;134.252;2023-02-28T00:11:24;100310.34;;;2.07;54.85
46846;BME280;33947;46.804;134.252;2023-02-28T00:14:30;100299.97;;;2.34;54.16
46846;BME280;33947;46.804;134.252;2023-02-28T00:17:34;100272.94;;;2.63;53.31
46846;BME280;33947;46.804;134.252;2023-02-28T00:20:39;100283.44;;;2.66;53.28
46846;BME280;33947;46.804;134.252;2023-02-28T00:23:44;100247.53;;;2.43;53.78
46846;BME280;33947;46.804;134.252;2023-02-28T00:26:48;100284.28;;;2.55;53.70
46846;BME280;33947;46.804;134.252;2023-02-28T00:29:52;100280.78;;;2.64;54.31
46846;BME280;33947;46.804;134.252;2023-02-28T00:32:58;100279.09;;;2.86;53.50
46846;BME280;33947;46.804;134.252;2023-02-28T00:36:05;100255.44;;;2.65;53.34
46846;BME280;33947;46.804;134.252;2023-02-28T00:39:11;100275.53;;;2.61;52.91
46846;BME280;33947;46.804;134.252;2023-02-28T00:42:16;100277.31;;;2.67;53.38
46846;BME280;33947;46.804;134.252;2023-02-28T00:45:22;100240.59;;;2.48;53.11
46846;BME280;33947;46.804;134.252;2023-02-28T00:48:27;100261.56;;;3.07;51.54
46846;BME280;33947;46.804;134.252;2023-02-28T00:51:32;100262.47;;;2.97;51.74
46846;BME280;33947;46.804;134.252;2023-02-28T00:54:36;100267.72;;;2.80;53.18
46846;BME280;33947;46.804;134.252;2023-02-28T00:57:42;100259.84;;;2.94;53.10
46846;BME280;33947;46.804;134.252;2023-02-28T01:00:47;100251.09;;;3.06;52.72
46846;BME280;33947;46.804;134.252;2023-02-28T01:03:52;100220.50;;;2.56;53.51
46846;BME280;33947;46.804;134.252;2023-02-28T01:06:56;100244.06;;;2.52;54.49
46846;BME280;33947;46.804;134.252;2023-02-28T01:10:00;100244.09;;;2.87;53.29
46846;BME280;33947;46.804;134.252;2023-02-28T01:13:05;100229.22;;;2.91;53.26
46846;BME280;33947;46.804;134.252;2023-02-28T01:16:12;100216.09;;;2.83;53.40
46846;BME280;33947;46.804;134.252;2023-02-28T01:19:17;100216.97;;;2.82;54.14
46846;BME280;33947;46.804;134.252;2023-02-28T01:22:21;100244.09;;;2.81;54.26
46846;BME280;33947;46.804;134.252;2023-02-28T01:25:25;100237.97;;;2.70;54.43
46846;BME280;33947;46.804;134.252;2023-02-28T01:28:29;100239.72;;;2.62;54.82
46846;BME280;33947;46.804;134.252;2023-02-28T01:31:35;100239.72;;;2.74;54.29
46846;BME280;33947;46.804;134.252;2023-02-28T01:34:43;100232.75;;;2.92;53.43
46846;BME280;33947;46.804;134.252;2023-02-28T01:37:47;100238.84;;;2.94;53.56
46846;BME280;33947;46.804;134.252;2023-02-28T01:40:51;100239.72;;;2.89;53.62
46846;BME280;33947;46.804;134.252;2023-02-28T01:44:04;100230.97;;;2.86;53.99
46846;BME280;33947;46.804;134.252;2023-02-28T01:47:09;100229.22;;;3.07;53.41
46846;BME280;33947;46.804;134.252;2023-02-28T01:50:16;100209.09;;;3.07;53.64
46846;BME280;33947;46.804;134.252;2023-02-28T01:53:27;100225.66;;;3.37;53.72
46846;BME280;33947;46.804;134.252;2023-02-28T01:56:35;100212.53;;;3.42;53.83
46846;BME280;33947;46.804;134.252;2023-02-28T01:59:46;100202.84;;;3.52;53.50
46846;BME280;33947;46.804;134.252;2023-02-28T02:02:58;100204.50;;;3.78;53.46
46846;BME280;33947;46.804;134.252;2023-02-28T02:06:03;100182.50;;;4.00;52.55
46846;BME280;33947;46.804;134.252;2023-02-28T02:09:07;100194.72;;;4.08;52.85
46846;BME280;33947;46.804;134.252;2023-02-28T02:15:41;100195.84;;;3.60;54.17
46846;BME280;33947;46.804;134.252;2023-02-28T02:18:57;100194.81;;;3.90;54.18
46846;BME280;33947;46.804;134.252;2023-02-28T02:25:48;100198.09;;;4.30;53.05
46846;BME280;33947;46.804;134.252;2023-02-28T02:43:06;100192.31;;;3.64;54.30
46846;BME280;33947;46.804;134.252;2023-02-28T02:46:29;100194.19;;;3.25;54.53
46846;BME280;33947;46.804;134.252;2023-02-28T02:49:36;100190.69;;;3.26;54.80
46846;BME280;33947;46.804;134.252;2023-02-28T02:52:45;100179.19;;;3.64;54.24
46846;BME280;33947;46.804;134.252;2023-02-28T02:55:53;100172.88;;;3.99;53.32
46846;BME280;33947;46.804;134.252;2023-02-28T02:59:03;100168.38;;;4.17;53.09
46846;BME280;33947;46.804;134.252;2023-02-28T03:02:12;100166.56;;;4.27;53.36
46846;BME280;33947;46.804;134.252;2023-02-28T03:05:25;100166.47;;;4.39;52.50
46846;BME280;33947;46.804;134.252;2023-02-28T03:08:34;100172.72;;;4.24;54.00
46846;BME280;33947;46.804;134.252;2023-02-28T03:11:40;100164.75;;;4.37;53.61
46846;BME280;33947;46.804;134.252;2023-02-28T03:15:15;100139.19;;;4.51;52.39
46846;BME280;33947;46.804;134.252;2023-02-28T03:25:49;100165.59;;;4.40;52.18
46846;BME280;33947;46.804;134.252;2023-02-28T03:29:08;100145.63;;;4.13;52.77
46846;BME280;33947;46.804;134.252;2023-02-28T03:32:36;100152.78;;;3.87;53.90
46846;BME280;33947;46.804;134.252;2023-02-28T03:35:50;100166.00;;;3.73;54.83
46846;BME280;33947;46.804;134.252;2023-02-28T03:39:04;100158.97;;;3.75;54.75
46846;BME280;33947;46.804;134.252;2023-02-28T03:42:18;100157.97;;;4.00;54.17
46846;BME280;33947;46.804;134.252;2023-02-28T03:45:28;100163.16;;;4.14;54.17
46846;BME280;33947;46.804;134.252;2023-02-28T03:49:02;100163.28;;;3.94;54.55
46846;BME280;33947;46.804;134.252;2023-02-28T03:52:06;100164.22;;;3.77;55.19
46846;BME280;33947;46.804;134.252;2023-02-28T03:55:13;100157.19;;;3.81;55.49
46846;BME280;33947;46.804;134.252;2023-02-28T04:01:45;100178.50;;;2.86;61.17
46846;BME280;33947;46.804;134.252;2023-02-28T04:04:50;100184.63;;;2.88;61.61
46846;BME280;33947;46.804;134.252;2023-02-28T04:08:03;100189.88;;;2.80;63.33
46846;BME280;33947;46.804;134.252;2023-02-28T04:14:34;100185.53;;;2.68;64.74
46846;BME280;33947;46.804;134.252;2023-02-28T04:17:38;100161.94;;;2.37;66.55
46846;BME280;33947;46.804;134.252;2023-02-28T04:20:42;100188.13;;;2.28;70.03
46846;BME280;33947;46.804;134.252;2023-02-28T04:23:46;100189.00;;;2.19;70.74
46846;BME280;33947;46.804;134.252;2023-02-28T04:26:52;100167.09;;;2.08;69.46
46846;BME280;33947;46.804;134.252;2023-02-28T04:29:57;100186.31;;;2.00;72.12
46846;BME280;33947;46.804;134.252;2023-02-28T04:33:01;100171.44;;;1.84;73.54
46846;BME280;33947;46.804;134.252;2023-02-28T04:36:07;100178.44;;;1.90;74.26
46846;BME280;33947;46.804;134.252;2023-02-28T04:39:12;100178.47;;;2.05;72.56
46846;BME280;33947;46.804;134.252;2023-02-28T04:42:17;100182.88;;;2.26;70.43
46846;BME280;33947;46.804;134.252;2023-02-28T04:45:22;100181.97;;;2.07;73.06
46846;BME280;33947;46.804;134.252;2023-02-28T04:48:31;100154.88;;;2.03;72.92
46846;BME280;33947;46.804;134.252;2023-02-28T04:51:36;100155.72;;;1.78;75.79
46846;BME280;33947;46.804;134.252;2023-02-28T04:54:41;100156.63;;;2.08;72.73
46846;BME280;33947;46.804;134.252;2023-02-28T04:57:45;100149.69;;;2.38;70.20
46846;BME280;33947;46.804;134.252;2023-02-28T05:00:52;100179.41;;;2.52;71.76
46846;BME280;33947;46.804;134.252;2023-02-28T05:03:59;100165.41;;;2.45;71.77
46846;BME280;33947;46.804;134.252;2023-02-28T05:07:04;100175.03;;;2.57;70.96
46846;BME280;33947;46.804;134.252;2023-02-28T05:10:09;100187.25;;;2.71;70.73
46846;BME280;33947;46.804;134.252;2023-02-28T05:13:13;100175.03;;;2.73;71.15
46846;BME280;33947;46.804;134.252;2023-02-28T05:16:19;100172.38;;;2.98;69.82
46846;BME280;33947;46.804;134.252;2023-02-28T05:19:23;100169.69;;;3.21;69.56
46846;BME280;33947;46.804;134.252;2023-02-28T05:22:28;100174.00;;;3.47;68.20
46846;BME280;33947;46.804;134.252;2023-02-28T05:25:32;100170.44;;;3.62;67.92
46846;BME280;33947;46.804;134.252;2023-02-28T05:28:37;100164.28;;;3.66;68.12
46846;BME280;33947;46.804;134.252;2023-02-28T05:31:41;100171.34;;;3.53;68.49
46846;BME280;33947;46.804;134.252;2023-02-28T05:34:46;100177.47;;;3.55;69.03
46846;BME280;33947;46.804;134.252;2023-02-28T05:37:51;100169.56;;;3.57;69.40
46846;BME280;33947;46.804;134.252;2023-02-28T05:40:55;100166.09;;;3.50;69.24
46846;BME280;33947;46.804;134.252;2023-02-28T05:43:59;100174.09;;;3.11;71.66
46846;BME280;33947;46.804;134.252;2023-02-28T05:47:04;100167.09;;;3.23;71.75
46846;BME280;33947;46.804;134.252;2023-02-28T05:50:08;100163.53;;;3.28;71.38
46846;BME280;33947;46.804;134.252;2023-02-28T05:53:13;100171.38;;;3.45;71.16
46846;BME280;33947;46.804;134.252;2023-02-28T05:56:17;100173.94;;;3.59;70.21
46846;BME280;33947;46.804;134.252;2023-02-28T05:59:22;100173.03;;;3.64;70.06
46846;BME280;33947;46.804;134.252;2023-02-28T06:02:26;100163.50;;;3.42;70.78
46846;BME280;33947;46.804;134.252;2023-02-28T06:05:31;100176.63;;;3.44;70.74
46846;BME280;33947;46.804;134.252;2023-02-28T06:08:36;100181.91;;;3.31;71.17
46846;BME280;33947;46.804;134.252;2023-02-28T06:11:41;100182.88;;;2.95;72.66
46846;BME280;33947;46.804;134.252;2023-02-28T06:14:46;100192.50;;;2.96;73.07
46846;BME280;33947;46.804;134.252;2023-02-28T06:17:50;100196.00;;;2.98;73.11
46846;BME280;33947;46.804;134.252;2023-02-28T06:20:56;100195.13;;;2.82;73.94
46846;BME280;33947;46.804;134.252;2023-02-28T06:24:00;100203.03;;;2.66;74.86
46846;BME280;33947;46.804;134.252;2023-02-28T06:27:05;100179.38;;;2.37;75.45
46846;BME280;33947;46.804;134.252;2023-02-28T06:30:10;100211.75;;;2.68;75.86
46846;BME280;33947;46.804;134.252;2023-02-28T06:33:15;100200.34;;;3.02;72.94
46846;BME280;33947;46.804;134.252;2023-02-28T06:36:20;100208.22;;;2.97;72.81
46846;BME280;33947;46.804;134.252;2023-02-28T06:39:24;100194.28;;;2.50;74.20
46846;BME280;33947;46.804;134.252;2023-02-28T06:42:28;100214.34;;;2.39;75.85
46846;BME280;33947;46.804;134.252;2023-02-28T06:45:34;100202.09;;;2.22;77.60
46846;BME280;33947;46.804;134.252;2023-02-28T06:48:39;100194.25;;;2.31;78.25
46846;BME280;33947;46.804;134.252;2023-02-28T06:51:44;100209.13;;;2.67;74.87
46846;BME280;33947;46.804;134.252;2023-02-28T06:54:48;100204.75;;;2.50;76.29
46846;BME280;33947;46.804;134.252;2023-02-28T06:58:04;100210.88;;;2.44;76.28
46846;BME280;33947;46.804;134.252;2023-02-28T07:01:17;100217.81;;;2.19;77.90
46846;BME280;33947;46.804;134.252;2023-02-28T07:04:23;100209.94;;;2.19;78.58
46846;BME280;33947;46.804;134.252;2023-02-28T07:07:27;100216.09;;;2.51;77.74
46846;BME280;33947;46.804;134.252;2023-02-28T07:10:33;100211.72;;;2.53;77.51
46846;BME280;33947;46.804;134.252;2023-02-28T07:13:37;100216.13;;;2.55;76.47
46846;BME280;33947;46.804;134.252;2023-02-28T07:16:40;100215.22;;;2.38;77.83
46846;BME280;33947;46.804;134.252;2023-02-28T07:19:45;100178.47;;;2.03;77.96
46846;BME280;33947;46.804;134.252;2023-02-28T07:22:50;100230.88;;;2.05;78.58
46846;BME280;33947;46.804;134.252;2023-02-28T07:25:59;100229.84;;;1.67;80.14
46846;BME280;33947;46.804;134.252;2023-02-28T07:29:04;100232.53;;;1.73;79.81
46846;BME280;33947;46.804;134.252;2023-02-28T07:32:08;100235.94;;;1.60;80.62
46846;BME280;33947;46.804;134.252;2023-02-28T07:35:13;100242.06;;;1.64;80.20
46846;BME280;33947;46.804;134.252;2023-02-28T07:38:18;100243.56;;;1.23;83.04
46846;BME280;33947;46.804;134.252;2023-02-28T07:41:23;100182.47;;;1.11;82.35
46846;BME280;33947;46.804;134.252;2023-02-28T07:44:29;100240.09;;;1.22;82.86
46846;BME280;33947;46.804;134.252;2023-02-28T07:47:33;100224.38;;;1.19;82.33
46846;BME280;33947;46.804;134.252;2023-02-28T07:50:38;100248.81;;;1.23;82.92
46846;BME280;33947;46.804;134.252;2023-02-28T07:53:41;100251.34;;;1.12;83.19
46846;BME280;33947;46.804;134.252;2023-02-28T07:56:46;100255.56;;;0.93;85.32
46846;BME280;33947;46.804;134.252;2023-02-28T07:59:52;100255.44;;;0.77;86.46
46846;BME280;33947;46.804;134.252;2023-02-28T08:02:56;100251.75;;;0.52;87.76
46846;BME280;33947;46.804;134.252;2023-02-28T08:06:05;100269.19;;;0.56;88.28
46846;BME280;33947;46.804;134.252;2023-02-28T08:09:10;100271.97;;;0.73;86.41
46846;BME280;33947;46.804;134.252;2023-02-28T08:12:15;100282.44;;;0.73;85.92
46846;BME280;33947;46.804;134.252;2023-02-28T08:15:19;100285.94;;;0.75;85.56
46846;BME280;33947;46.804;134.252;2023-02-28T08:18:24;100272.03;;;0.78;84.25
46846;BME280;33947;46.804;134.252;2023-02-28T08:21:28;100282.53;;;0.85;84.30
46846;BME280;33947;46.804;134.252;2023-02-28T08:24:33;100281.66;;;0.85;82.30
46846;BME280;33947;46.804;134.252;2023-02-28T08:27:38;100256.94;;;0.50;82.25
46846;BME280;33947;46.804;134.252;2023-02-28T08:30:42;100303.47;;;0.87;81.70
46846;BME280;33947;46.804;134.252;2023-02-28T08:33:46;100300.66;;;0.65;82.15
46846;BME280;33947;46.804;134.252;2023-02-28T08:36:53;100313.56;;;0.50;82.79
46846;BME280;33947;46.804;134.252;2023-02-28T08:39:57;100331.03;;;0.55;83.19
46846;BME280;33947;46.804;134.252;2023-02-28T08:43:01;100319.72;;;0.56;81.48
46846;BME280;33947;46.804;134.252;2023-02-28T08:46:06;100346.66;;;0.49;82.09
46846;BME280;33947;46.804;134.252;2023-02-28T08:49:11;100335.16;;;0.33;82.41
46846;BME280;33947;46.804;134.252;2023-02-28T08:52:16;100333.16;;;0.10;83.80
46846;BME280;33947;46.804;134.252;2023-02-28T08:55:20;100373.13;;;0.03;84.45
46846;BME280;33947;46.804;134.252;2023-02-28T08:58:25;100376.94;;;0.30;83.77
46846;BME280;33947;46.804;134.252;2023-02-28T09:01:30;100321.34;;;-0.27;84.53
46846;BME280;33947;46.804;134.252;2023-02-28T09:04:36;100387.13;;;0.08;84.16
46846;BME280;33947;46.804;134.252;2023-02-28T09:07:41;100390.88;;;0.32;83.28
46846;BME280;33947;46.804;134.252;2023-02-28T09:10:45;100383.94;;;-0.31;82.79
46846;BME280;33947;46.804;134.252;2023-02-28T09:13:50;100383.63;;;-0.52;83.66
46846;BME280;33947;46.804;134.252;2023-02-28T09:16:55;100404.81;;;-0.31;83.24
46846;BME280;33947;46.804;134.252;2023-02-28T09:19:59;100413.88;;;-0.07;82.05
46846;BME280;33947;46.804;134.252;2023-02-28T09:23:04;100418.50;;;-0.47;81.45
46846;BME280;33947;46.804;134.252;2023-02-28T09:26:14;100425.34;;;-0.54;82.08
46846;BME280;33947;46.804;134.252;2023-02-28T09:29:18;100425.25;;;-0.60;82.08
46846;BME280;33947;46.804;134.252;2023-02-28T09:32:23;100437.88;;;-0.83;82.18
46846;BME280;33947;46.804;134.252;2023-02-28T09:35:28;100444.91;;;-0.79;82.78
46846;BME280;33947;46.804;134.252;2023-02-28T09:38:34;100456.75;;;-0.49;82.16
46846;BME280;33947;46.804;134.252;2023-02-28T09:41:43;100463.06;;;-0.36;80.86
46846;BME280;33947;46.804;134.252;2023-02-28T09:44:55;100458.31;;;-0.57;79.43
46846;BME280;33947;46.804;134.252;2023-02-28T09:48:04;100475.56;;;-0.66;79.70
46846;BME280;33947;46.804;134.252;2023-02-28T09:54:52;100484.25;;;-0.15;79.20
46846;BME280;33947;46.804;134.252;2023-02-28T09:57:57;100477.16;;;-0.23;77.97
46846;BME280;33947;46.804;134.252;2023-02-28T10:01:12;100481.69;;;-0.13;78.09
46846;BME280;33947;46.804;134.252;2023-02-28T10:11:01;100504.81;;;-0.35;79.25
46846;BME280;33947;46.804;134.252;2023-02-28T10:14:19;100517.13;;;-0.27;79.47
46846;BME280;33947;46.804;134.252;2023-02-28T10:17:38;100493.28;;;-0.48;80.34
46846;BME280;33947;46.804;134.252;2023-02-28T10:21:04;100520.72;;;-0.21;80.14
46846;BME280;33947;46.804;134.252;2023-02-28T10:27:34;100531.63;;;-0.45;81.38
46846;BME280;33947;46.804;134.252;2023-02-28T10:30:45;100534.25;;;-0.44;80.83
46846;BME280;33947;46.804;134.252;2023-02-28T10:33:50;100548.19;;;-0.41;80.24
46846;BME280;33947;46.804;134.252;2023-02-28T10:36:55;100556.88;;;-0.44;80.86
46846;BME280;33947;46.804;134.252;2023-02-28T10:40:00;100542.50;;;-0.68;80.39
46846;BME280;33947;46.804;134.252;2023-02-28T10:43:17;100555.78;;;-0.55;81.69
46846;BME280;33947;46.804;134.252;2023-02-28T10:46:24;100550.66;;;-0.51;80.99
46846;BME280;33947;46.804;134.252;2023-02-28T10:49:32;100562.81;;;-0.51;79.92
46846;BME280;33947;46.804;134.252;2023-02-28T10:52:41;100561.88;;;-0.56;79.49
46846;BME280;33947;46.804;134.252;2023-02-28T10:59:26;100580.22;;;-0.95;80.68
46846;BME280;33947;46.804;134.252;2023-02-28T11:02:36;100592.56;;;-0.86;80.47
46846;BME280;33947;46.804;134.252;2023-02-28T11:05:47;100580.44;;;-1.25;80.90
46846;BME280;33947;46.804;134.252;2023-02-28T11:08:58;100586.19;;;-1.00;80.97
46846;BME280;33947;46.804;134.252;2023-02-28T11:12:06;100596.94;;;-0.85;79.69
46846;BME280;33947;46.804;134.252;2023-02-28T11:15:50;100608.66;;;-1.07;79.81
46846;BME280;33947;46.804;134.252;2023-02-28T11:19:38;100603.69;;;-0.95;80.22
46846;BME280;33947;46.804;134.252;2023-02-28T11:22:44;100591.38;;;-1.02;78.71
46846;BME280;33947;46.804;134.252;2023-02-28T11:25:51;100604.56;;;-0.94;79.00
46846;BME280;33947;46.804;134.252;2023-02-28T11:29:20;100620.63;;;-0.76;78.99
46846;BME280;33947;46.804;134.252;2023-02-28T11:32:27;100627.78;;;-0.65;78.26
46846;BME280;33947;46.804;134.252;2023-02-28T11:35:34;100612.06;;;-0.68;77.27
46846;BME280;33947;46.804;134.252;2023-02-28T11:53:00;100636.84;;;-0.91;79.23
46846;BME280;33947;46.804;134.252;2023-02-28T11:56:33;100644.78;;;-0.84;78.41
46846;BME280;33947;46.804;134.252;2023-02-28T12:03:24;100635.44;;;-0.73;77.75
46846;BME280;33947;46.804;134.252;2023-02-28T12:10:22;100672.94;;;-0.68;77.80
46846;BME280;33947;46.804;134.252;2023-02-28T12:13:46;100638.59;;;-0.90;77.38
46846;BME280;33947;46.804;134.252;2023-02-28T12:17:26;100692.59;;;-0.42;76.17
46846;BME280;33947;46.804;134.252;2023-02-28T12:27:13;100679.88;;;-0.25;74.42
46846;BME280;33947;46.804;134.252;2023-02-28T12:30:58;100700.94;;;-0.18;75.24
46846;BME280;33947;46.804;134.252;2023-02-28T12:33:59;100707.31;;;-0.46;74.54
46846;BME280;33947;46.804;134.252;2023-02-28T12:37:14;100692.56;;;-0.85;75.84
46846;BME280;33947;46.804;134.252;2023-02-28T12:40:27;100705.38;;;-0.56;75.85
46846;BME280;33947;46.804;134.252;2023-02-28T12:43:37;100705.06;;;-0.27;75.82
46846;BME280;33947;46.804;134.252;2023-02-28T12:46:51;100681.53;;;-0.74;74.57
46846;BME280;33947;46.804;134.252;2023-02-28T12:50:00;100695.06;;;-0.92;76.39
46846;BME280;33947;46.804;134.252;2023-02-28T12:53:18;100725.66;;;-0.83;76.73
46846;BME280;33947;46.804;134.252;2023-02-28T12:59:57;100737.03;;;-1.18;76.96
46846;BME280;33947;46.804;134.252;2023-02-28T13:03:31;100741.34;;;-1.53;77.50
46846;BME280;33947;46.804;134.252;2023-02-28T13:10:07;100751.75;;;-1.55;76.54
46846;BME280;33947;46.804;134.252;2023-02-28T13:13:15;100758.81;;;-1.83;73.91
46846;BME280;33947;46.804;134.252;2023-02-28T13:16:20;100768.63;;;-1.72;71.39
46846;BME280;33947;46.804;134.252;2023-02-28T13:19:32;100742.47;;;-1.77;72.12
46846;BME280;33947;46.804;134.252;2023-02-28T13:22:46;100780.66;;;-1.78;69.13
46846;BME280;33947;46.804;134.252;2023-02-28T13:25:51;100787.59;;;-1.78;69.22
46846;BME280;33947;46.804;134.252;2023-02-28T13:29:03;100789.38;;;-2.08;67.49
46846;BME280;33947;46.804;134.252;2023-02-28T13:35:14;100805.88;;;-2.07;67.36
46846;BME280;33947;46.804;134.252;2023-02-28T13:38:24;100811.50;;;-2.51;62.42
46846;BME280;33947;46.804;134.252;2023-02-28T13:48:20;100809.72;;;-2.81;60.76
46846;BME280;33947;46.804;134.252;2023-02-28T13:51:48;100819.19;;;-2.83;63.09
46846;BME280;33947;46.804;134.252;2023-02-28T13:58:47;100829.63;;;-3.09;61.62
46846;BME280;33947;46.804;134.252;2023-02-28T14:05:17;100835.53;;;-3.13;60.56
46846;BME280;33947;46.804;134.252;2023-02-28T14:08:23;100847.91;;;-3.06;63.03
46846;BME280;33947;46.804;134.252;2023-02-28T14:11:31;100842.50;;;-3.12;61.99
46846;BME280;33947;46.804;134.252;2023-02-28T14:17:40;100833.00;;;-3.38;60.77
46846;BME280;33947;46.804;134.252;2023-02-28T14:20:47;100857.25;;;-3.37;60.48
46846;BME280;33947;46.804;134.252;2023-02-28T14:37:29;100876.34;;;-3.37;61.39
46846;BME280;33947;46.804;134.252;2023-02-28T14:40:35;100873.56;;;-3.41;62.14
46846;BME280;33947;46.804;134.252;2023-02-28T14:43:54;100860.41;;;-3.70;61.35
46846;BME280;33947;46.804;134.252;2023-02-28T14:47:03;100826.09;;;-4.10;60.17
46846;BME280;33947;46.804;134.252;2023-02-28T14:50:24;100884.47;;;-3.99;57.68
46846;BME280;33947;46.804;134.252;2023-02-28T14:53:36;100879.34;;;-3.97;60.65
46846;BME280;33947;46.804;134.252;2023-02-28T14:56:41;100880.22;;;-3.97;61.53
46846;BME280;33947;46.804;134.252;2023-02-28T14:59:45;100864.38;;;-4.27;61.43
46846;BME280;33947;46.804;134.252;2023-02-28T15:02:50;100894.72;;;-4.02;62.69
46846;BME280;33947;46.804;134.252;2023-02-28T15:05:57;100893.47;;;-4.12;60.82
46846;BME280;33947;46.804;134.252;2023-02-28T15:09:16;100888.88;;;-4.19;61.28
46846;BME280;33947;46.804;134.252;2023-02-28T15:12:22;100913.09;;;-4.18;60.89
46846;BME280;33947;46.804;134.252;2023-02-28T15:15:42;100915.28;;;-4.07;60.36
46846;BME280;33947;46.804;134.252;2023-02-28T15:22:31;100919.56;;;-4.53;55.84
46846;BME280;33947;46.804;134.252;2023-02-28T15:25:40;100924.72;;;-4.31;59.64
46846;BME280;33947;46.804;134.252;2023-02-28T15:28:45;100939.78;;;-4.00;59.92
46846;BME280;33947;46.804;134.252;2023-02-28T15:31:51;100948.00;;;-3.89;59.67
46846;BME280;33947;46.804;134.252;2023-02-28T15:35:19;100957.31;;;-3.94;58.08
46846;BME280;33947;46.804;134.252;2023-02-28T15:38:26;100958.13;;;-3.72;58.33
46846;BME280;33947;46.804;134.252;2023-02-28T15:41:37;100961.50;;;-3.75;57.86
46846;BME280;33947;46.804;134.252;2023-02-28T15:44:45;100978.19;;;-3.91;57.59
46846;BME280;33947;46.804;134.252;2023-02-28T15:47:50;100980.06;;;-4.31;58.23
46846;BME280;33947;46.804;134.252;2023-02-28T15:54:33;100969.78;;;-4.91;57.90
46846;BME280;33947;46.804;134.252;2023-02-28T15:57:39;100992.38;;;-4.89;59.69
46846;BME280;33947;46.804;134.252;2023-02-28T16:00:43;100990.00;;;-5.04;57.53
46846;BME280;33947;46.804;134.252;2023-02-28T16:03:54;100988.41;;;-4.81;60.37
46846;BME280;33947;46.804;134.252;2023-02-28T16:07:03;100985.13;;;-5.55;58.63
46846;BME280;33947;46.804;134.252;2023-02-28T16:10:08;101013.72;;;-5.34;60.20
46846;BME280;33947;46.804;134.252;2023-02-28T16:13:13;101018.34;;;-5.46;60.54
46846;BME280;33947;46.804;134.252;2023-02-28T16:16:20;101016.06;;;-5.58;59.39
46846;BME280;33947;46.804;134.252;2023-02-28T16:19:25;101001.72;;;-6.07;60.47
46846;BME280;33947;46.804;134.252;2023-02-28T16:22:30;101024.06;;;-5.90;61.46
46846;BME280;33947;46.804;134.252;2023-02-28T16:25:37;101035.22;;;-5.91;61.48
46846;BME280;33947;46.804;134.252;2023-02-28T16:28:43;101021.03;;;-5.99;61.82
46846;BME280;33947;46.804;134.252;2023-02-28T16:31:47;101033.44;;;-5.92;61.84
46846;BME280;33947;46.804;134.252;2023-02-28T16:34:52;101039.69;;;-6.06;59.79
46846;BME280;33947;46.804;134.252;2023-02-28T16:37:56;101041.31;;;-6.08;60.17
46846;BME280;33947;46.804;134.252;2023-02-28T16:41:00;101027.28;;;-6.14;60.91
46846;BME280;33947;46.804;134.252;2023-02-28T16:44:12;101034.94;;;-6.33;59.65
46846;BME280;33947;46.804;134.252;2023-02-28T16:47:17;101053.28;;;-6.29;61.84
46846;BME280;33947;46.804;134.252;2023-02-28T16:50:24;101063.94;;;-6.04;61.10
46846;BME280;33947;46.804;134.252;2023-02-28T16:53:29;101060.25;;;-6.09;60.82
46846;BME280;33947;46.804;134.252;2023-02-28T16:56:34;101065.13;;;-6.16;61.23
46846;BME280;33947;46.804;134.252;2023-02-28T16:59:38;101062.53;;;-6.16;62.14
46846;BME280;33947;46.804;134.252;2023-02-28T17:02:43;101054.66;;;-6.35;61.88
46846;BME280;33947;46.804;134.252;2023-02-28T17:05:48;101062.69;;;-6.47;61.53
46846;BME280;33947;46.804;134.252;2023-02-28T17:08:54;101054.97;;;-6.64;61.69
46846;BME280;33947;46.804;134.252;2023-02-28T17:11:58;101056.84;;;-6.78;62.24
46846;BME280;33947;46.804;134.252;2023-02-28T17:15:03;101048.31;;;-6.93;62.01
46846;BME280;33947;46.804;134.252;2023-02-28T17:18:16;101057.97;;;-7.06;61.66
46846;BME280;33947;46.804;134.252;2023-02-28T17:21:24;101066.84;;;-7.17;61.86
46846;BME280;33947;46.804;134.252;2023-02-28T17:24:29;101043.91;;;-7.44;62.00
46846;BME280;33947;46.804;134.252;2023-02-28T17:27:33;101050.72;;;-7.30;62.08
46846;BME280;33947;46.804;134.252;2023-02-28T17:30:38;101061.97;;;-7.44;62.34
46846;BME280;33947;46.804;134.252;2023-02-28T17:33:44;101070.44;;;-7.30;62.67
46846;BME280;33947;46.804;134.252;2023-02-28T17:36:50;101025.97;;;-7.74;61.88
46846;BME280;33947;46.804;134.252;2023-02-28T17:39:55;101061.78;;;-7.47;61.82
46846;BME280;33947;46.804;134.252;2023-02-28T17:43:00;101052.47;;;-7.60;62.53
46846;BME280;33947;46.804;134.252;2023-02-28T17:46:05;101032.41;;;-7.66;63.09
46846;BME280;33947;46.804;134.252;2023-02-28T17:49:11;101068.34;;;-7.37;61.88
46846;BME280;33947;46.804;134.252;2023-02-28T17:52:15;101070.81;;;-7.56;62.95
46846;BME280;33947;46.804;134.252;2023-02-28T17:55:20;101036.59;;;-7.68;62.15
46846;BME280;33947;46.804;134.252;2023-02-28T17:58:24;101055.72;;;-7.64;62.19
46846;BME280;33947;46.804;134.252;2023-02-28T18:01:28;101097.22;;;-7.45;62.02
46846;BME280;33947;46.804;134.252;2023-02-28T18:04:33;101104.28;;;-7.57;62.41
46846;BME280;33947;46.804;134.252;2023-02-28T18:07:38;101102.88;;;-7.35;62.92
46846;BME280;33947;46.804;134.252;2023-02-28T18:10:43;101098.25;;;-7.41;62.62
46846;BME280;33947;46.804;134.252;2023-02-28T18:13:49;101108.66;;;-7.71;62.26